»·PEaware :: N112PC KMRY-KSTS

N112PC :: KMRY-KSTS

FLIGHT INFORMATION

Flight Status: Arrived
Operator: Privately registered:
United States
More flights under this callsign
Pilot: Gabor H. (24209)
Aircraft: PILATUS PC-12 EAGLE
(PC12)
More flights by this aircraft type
Origin: KMRY Monterey Peninsula
United States
Destination: KSTS Sonoma Co
United States
More flights between these airports :: More routes between these airports
Route: +MRY5 SHOEY V27 PYE
File this flight plan on PilotEdge
Remarks:
Altitude:
(Current/Filed)
14,000ft
Speed:
(Current/Filed)
260kts
Departed: 23-Apr-19 05:28 PM
Arrived: 23-Apr-19 06:05 PM
Distance/Time
Traveled:
124nm/0:36
Distance/Time
To Go:
Arrived

Flight Plot

Page will automatically refresh every two minutes.

Flight plan parsing failed; only flown route is shown


Map Options




Map Legend


Flown Route
Filed Route
Departure Airport
Arrival Airport
Navaid (VOR, NDB)
Fix

Horizontal Profiles

Position Reports

Time Latitude Longitude Heading Altitude Ground
Speed
23-Apr-19 17:02 36.588812 -121.853792 288 208ft 0kts
23-Apr-19 17:03 36.588812 -121.853792 288 208ft 0kts
23-Apr-19 17:04 36.588812 -121.853792 288 208ft 0kts
23-Apr-19 17:05 36.588812 -121.853792 288 208ft 0kts
23-Apr-19 17:06 36.588812 -121.853792 288 208ft 0kts
23-Apr-19 17:07 36.588812 -121.853792 288 208ft 0kts
23-Apr-19 17:08 36.588812 -121.853792 288 208ft 0kts
23-Apr-19 17:09 36.588812 -121.853792 288 208ft 0kts
23-Apr-19 17:10 36.588812 -121.853792 288 208ft 0kts
23-Apr-19 17:11 36.588812 -121.853792 288 208ft 0kts
23-Apr-19 17:12 36.588813 -121.853794 288 208ft 0kts
23-Apr-19 17:13 36.588813 -121.853794 288 208ft 0kts
23-Apr-19 17:14 36.588813 -121.853794 288 208ft 0kts
23-Apr-19 17:15 36.588813 -121.853794 288 208ft 0kts
23-Apr-19 17:16 36.588813 -121.853794 288 208ft 0kts
23-Apr-19 17:17 36.588813 -121.853794 288 208ft 0kts
23-Apr-19 17:18 36.588813 -121.853794 288 208ft 0kts
23-Apr-19 17:19 36.588813 -121.853794 288 208ft 0kts
23-Apr-19 17:20 36.588650 -121.851709 112 208ft 21kts
23-Apr-19 17:21 36.586382 -121.845360 111 208ft 17kts
23-Apr-19 17:22 36.584314 -121.839216 112 208ft 22kts
23-Apr-19 17:23 36.582903 -121.835062 101 208ft 6kts
23-Apr-19 17:24 36.582879 -121.834788 93 208ft 0kts
23-Apr-19 17:25 36.582879 -121.834788 93 208ft 0kts
23-Apr-19 17:26 36.583417 -121.833721 267 208ft 3kts
23-Apr-19 17:27 36.593408 -121.861970 296 1000ft 121kts
23-Apr-19 17:28 36.619686 -121.883984 342 2517ft 132kts
23-Apr-19 17:29 36.658973 -121.899631 342 4015ft 155kts
23-Apr-19 17:30 36.700602 -121.919034 318 5525ft 165kts
23-Apr-19 17:31 36.720356 -121.974063 285 7062ft 194kts
23-Apr-19 17:32 36.734063 -122.043032 284 8583ft 213kts
23-Apr-19 17:33 36.744294 -122.117194 287 10086ft 218kts
23-Apr-19 17:34 36.787426 -122.165621 329 11595ft 215kts
23-Apr-19 17:35 36.837701 -122.207340 327 13096ft 219kts
23-Apr-19 17:36 36.889030 -122.252597 326 13978ft 240kts
23-Apr-19 17:37 36.945858 -122.301580 326 13986ft 252kts
23-Apr-19 17:38 37.003378 -122.353159 325 13975ft 254kts
23-Apr-19 17:39 37.060747 -122.406683 323 13977ft 262kts
23-Apr-19 17:40 37.125138 -122.448278 341 13977ft 262kts
23-Apr-19 17:41 37.194225 -122.478053 340 13978ft 262kts
23-Apr-19 17:42 37.262785 -122.509624 342 13989ft 262kts
23-Apr-19 17:43 37.332512 -122.537522 341 13996ft 262kts
23-Apr-19 17:44 37.401367 -122.568184 343 13996ft 262kts
23-Apr-19 17:45 37.471096 -122.595506 341 13997ft 262kts
23-Apr-19 17:46 37.539924 -122.626344 339 13992ft 263kts
23-Apr-19 17:47 37.605307 -122.654792 343 13984ft 262kts
23-Apr-19 17:48 37.674971 -122.682443 341 13983ft 262kts
23-Apr-19 17:49 37.744102 -122.713218 340 13975ft 263kts
23-Apr-19 17:50 37.812596 -122.745528 342 13967ft 262kts
23-Apr-19 17:51 37.882706 -122.772449 342 13829ft 267kts
23-Apr-19 17:52 37.955884 -122.791582 357 12350ft 273kts
23-Apr-19 17:53 38.025690 -122.795114 358 10795ft 232kts
23-Apr-19 17:54 38.088671 -122.797818 359 9371ft 223kts
23-Apr-19 17:55 38.149369 -122.800471 359 8367ft 215kts
23-Apr-19 17:56 38.208808 -122.802783 358 7360ft 211kts
23-Apr-19 17:57 38.267277 -122.805659 358 6396ft 209kts
23-Apr-19 17:58 38.323399 -122.807950 358 5416ft 204kts
23-Apr-19 17:59 38.378513 -122.809816 357 4405ft 202kts
23-Apr-19 18:00 38.433453 -122.811361 358 2918ft 186kts
23-Apr-19 18:01 38.481881 -122.815904 350 1650ft 158kts
23-Apr-19 18:02 38.519772 -122.826229 346 1292ft 122kts
23-Apr-19 18:03 38.528793 -122.816087 197 579ft 120kts
23-Apr-19 18:04 38.511073 -122.810135 121 128ft 10kts
23-Apr-19 18:05 38.510964 -122.809189 86 128ft 0kts
23-Apr-19 18:06 38.511045 -122.808124 17 128ft 1kts
23-Apr-19 18:07 38.512656 -122.806457 33 128ft 7kts
23-Apr-19 18:08 38.512428 -122.804558 179 128ft 1kts

Navigation Log

Ident Type
Flight plan parsing failed, navigation log unavailable